createdAt,value
2023-03-17T00:00:51.285Z,101560.95
2023-03-17T00:03:27.388Z,101560.74
2023-03-17T00:05:58.728Z,101559.16
2023-03-17T00:08:31.933Z,101557.57
2023-03-17T00:11:01.820Z,101554.56
2023-03-17T00:13:31.243Z,101555.66
2023-03-17T00:16:04.724Z,101559.33
2023-03-17T00:18:35.345Z,101556.84
2023-03-17T00:21:04.706Z,101556.40
2023-03-17T00:23:33.445Z,101557.27
2023-03-17T00:26:02.684Z,101562.27
2023-03-17T00:28:31.402Z,101562.77
2023-03-17T00:31:02.993Z,101563.99
2023-03-17T00:33:34.801Z,101565.04
2023-03-17T00:36:03.695Z,101564.14
2023-03-17T00:38:32.689Z,101569.77
2023-03-17T00:41:01.788Z,101573.42
2023-03-17T00:43:30.801Z,101572.73
2023-03-17T00:45:59.608Z,101579.77
2023-03-17T00:48:30.185Z,101577.98
2023-03-17T00:50:58.855Z,101586.38
2023-03-17T00:53:30.851Z,101584.23
2023-03-17T00:56:01.458Z,101589.70
2023-03-17T00:58:34.259Z,101586.88
2023-03-17T01:01:03.024Z,101593.35
2023-03-17T01:03:33.274Z,101597.59
2023-03-17T01:06:05.092Z,101593.66
2023-03-17T01:08:34.345Z,101592.53
2023-03-17T01:11:03.256Z,101595.85
2023-03-17T01:13:31.928Z,101598.96
2023-03-17T01:16:01.578Z,101599.32
2023-03-17T01:18:30.351Z,101601.20
2023-03-17T01:21:00.221Z,101603.88
2023-03-17T01:23:28.771Z,101605.23
2023-03-17T01:25:57.579Z,101609.09
2023-03-17T01:28:26.436Z,101610.06
2023-03-17T01:30:55.667Z,101611.94
2023-03-17T01:33:24.553Z,101618.11
2023-03-17T01:35:53.461Z,101617.20
2023-03-17T01:38:22.813Z,101615.78
2023-03-17T01:40:53.780Z,101623.52
2023-03-17T01:43:27.843Z,101622.27
2023-03-17T01:46:23.044Z,101627.57
2023-03-17T01:49:19.532Z,101630.34
2023-03-17T01:52:09.324Z,101634.92
2023-03-17T01:54:46.948Z,101637.13
2023-03-17T01:57:27.004Z,101641.67
2023-03-17T02:00:09.487Z,101648.10
2023-03-17T02:02:51.174Z,101645.89
2023-03-17T02:05:26.221Z,101650.39
2023-03-17T02:07:56.572Z,101655.45
2023-03-17T02:10:30.301Z,101657.63
2023-03-17T02:13:05.663Z,101658.50
2023-03-17T02:15:45.205Z,101658.17
2023-03-17T02:18:14.768Z,101662.20
2023-03-17T02:20:46.846Z,101667.17
2023-03-17T02:23:23.123Z,101675.19
2023-03-17T02:25:54.129Z,101675.30
2023-03-17T02:28:31.091Z,101675.73
2023-03-17T02:30:59.910Z,101678.47
2023-03-17T02:33:28.942Z,101680.23
2023-03-17T02:35:57.844Z,101686.25
2023-03-17T02:38:27.252Z,101693.54
2023-03-17T02:40:56.113Z,101697.16
2023-03-17T02:43:24.759Z,101692.66
2023-03-17T02:45:57.972Z,101697.81
2023-03-17T02:48:26.914Z,101701.07
2023-03-17T02:50:55.538Z,101700.10
2023-03-17T02:53:24.328Z,101706.89
2023-03-17T02:55:53.057Z,101706.04
2023-03-17T02:58:21.640Z,101707.53
2023-03-17T03:00:50.352Z,101709.54
2023-03-17T03:03:18.996Z,101713.73
2023-03-17T03:05:48.066Z,101714.25
2023-03-17T03:08:17.241Z,101723.27
2023-03-17T03:10:45.967Z,101721.02
2023-03-17T03:13:14.700Z,101724.57
2023-03-17T03:15:44.190Z,101723.08
2023-03-17T03:18:13.224Z,101724.38
2023-03-17T03:20:44.972Z,101727.16
2023-03-17T03:23:14.873Z,101726.69
2023-03-17T03:25:43.528Z,101723.08
2023-03-17T03:28:12.477Z,101725.70
2023-03-17T03:30:42.200Z,101727.55
2023-03-17T03:33:13.048Z,101727.10
2023-03-17T03:35:43.260Z,101726.98
2023-03-17T03:38:13.692Z,101726.37
2023-03-17T03:40:42.466Z,101732.25
2023-03-17T03:43:22.544Z,101732.20
2023-03-17T03:45:52.321Z,101735.88
2023-03-17T03:48:24.336Z,101737.25
2023-03-17T03:50:59.053Z,101739.89
2023-03-17T03:53:28.919Z,101742.48
2023-03-17T03:55:57.642Z,101743.21
2023-03-17T03:58:26.392Z,101748.61
2023-03-17T04:00:55.483Z,101749.03
2023-03-17T04:03:30.423Z,101751.91
2023-03-17T04:06:05.143Z,101756.80
2023-03-17T04:08:33.814Z,101757.74
2023-03-17T04:11:02.534Z,101758.68
2023-03-17T04:13:31.623Z,101764.64
2023-03-17T04:16:01.695Z,101766.36
2023-03-17T04:18:31.872Z,101770.16
2023-03-17T04:21:00.707Z,101767.80
2023-03-17T04:23:29.981Z,101766.52
2023-03-17T04:26:02.838Z,101770.45
2023-03-17T04:32:09.700Z,101773.09
2023-03-17T04:34:39.761Z,101777.35
2023-03-17T04:37:11.330Z,101780.02
2023-03-17T04:39:41.147Z,101780.41
2023-03-17T04:42:10.652Z,101780.45
2023-03-17T04:44:40.109Z,101784.15
2023-03-17T04:47:10.148Z,101784.55
2023-03-17T04:49:41.366Z,101787.42
2023-03-17T04:52:11.032Z,101786.73
2023-03-17T04:54:41.078Z,101796.41
2023-03-17T04:57:11.098Z,101795.62
2023-03-17T04:59:40.253Z,101797.42
2023-03-17T05:02:09.468Z,101795.27
2023-03-17T05:04:38.693Z,101791.11
2023-03-17T05:07:07.664Z,101797.12
2023-03-17T05:09:37.893Z,101796.70
2023-03-17T05:12:08.996Z,101793.00
2023-03-17T05:14:37.987Z,101793.86
2023-03-17T05:17:09.218Z,101801.94
2023-03-17T05:19:38.555Z,101808.40
2023-03-17T05:22:13.646Z,101809.64
2023-03-17T05:24:43.156Z,101810.69
2023-03-17T05:27:12.025Z,101810.36
2023-03-17T05:29:40.676Z,101815.80
2023-03-17T05:32:10.041Z,101815.95
2023-03-17T05:34:38.854Z,101817.88
2023-03-17T05:37:07.887Z,101817.27
2023-03-17T05:39:37.389Z,101820.70
2023-03-17T05:42:06.913Z,101826.27
2023-03-17T05:44:35.919Z,101829.86
2023-03-17T05:47:04.875Z,101832.92
2023-03-17T05:49:33.660Z,101834.85
2023-03-17T05:52:03.444Z,101840.25
2023-03-17T05:54:32.209Z,101846.14
2023-03-17T05:57:01.179Z,101850.48
2023-03-17T05:59:30.241Z,101844.98
2023-03-17T06:01:59.051Z,101849.05
2023-03-17T06:04:27.855Z,101849.90
2023-03-17T06:06:56.667Z,101844.98
2023-03-17T06:09:25.340Z,101845.70
2023-03-17T06:11:53.928Z,101843.73
2023-03-17T06:14:22.624Z,101848.79
2023-03-17T06:16:51.495Z,101854.52
2023-03-17T06:19:20.141Z,101854.29
2023-03-17T06:21:49.122Z,101854.23
2023-03-17T06:24:18.105Z,101854.48
2023-03-17T06:26:47.072Z,101860.29
2023-03-17T06:29:16.867Z,101866.33
2023-03-17T06:31:50.751Z,101856.09
2023-03-17T06:34:21.488Z,101864.85
2023-03-17T06:36:51.249Z,101869.33
2023-03-17T06:39:20.108Z,101860.81
2023-03-17T06:41:49.573Z,101864.73
2023-03-17T06:44:18.417Z,101863.64
2023-03-17T06:46:47.215Z,101861.73
2023-03-17T06:49:16.952Z,101862.84
2023-03-17T06:51:45.753Z,101862.44
2023-03-17T06:54:14.390Z,101863.05
2023-03-17T06:56:44.516Z,101861.56
2023-03-17T06:59:13.497Z,101873.08
2023-03-17T07:01:42.242Z,101865.27
2023-03-17T07:04:11.271Z,101860.23
2023-03-17T07:06:39.968Z,101869.35
2023-03-17T07:09:10.217Z,101862.81
2023-03-17T07:11:39.669Z,101865.30
2023-03-17T07:14:09.485Z,101869.02
2023-03-17T07:16:40.472Z,101865.95
2023-03-17T07:19:11.458Z,101860.95
2023-03-17T07:21:41.213Z,101859.52
2023-03-17T07:24:11.501Z,101868.52
2023-03-17T07:26:40.254Z,101870.42
2023-03-17T07:29:10.161Z,101860.36
2023-03-17T07:31:39.078Z,101864.53
2023-03-17T07:34:07.931Z,101858.65
2023-03-17T07:36:37.843Z,101856.67
2023-03-17T07:39:06.647Z,101857.73
2023-03-17T07:41:35.459Z,101852.48
2023-03-17T07:44:04.299Z,101852.13
2023-03-17T07:46:33.026Z,101848.86
2023-03-17T07:49:01.890Z,101847.02
2023-03-17T07:51:30.677Z,101854.39
2023-03-17T07:54:03.677Z,101853.05
2023-03-17T07:56:33.527Z,101848.27
2023-03-17T07:59:02.615Z,101838.65
2023-03-17T08:01:31.622Z,101844.52
2023-03-17T08:04:00.832Z,101838.63
2023-03-17T08:06:30.907Z,101844.75
2023-03-17T08:08:59.651Z,101847.85
2023-03-17T08:11:29.523Z,101853.45
2023-03-17T08:13:58.670Z,101837.70
2023-03-17T08:16:28.075Z,101848.70
2023-03-17T08:18:59.023Z,101855.94
2023-03-17T08:21:28.109Z,101846.93
2023-03-17T08:23:57.110Z,101842.37
2023-03-17T08:26:26.053Z,101850.23
2023-03-17T08:28:54.636Z,101836.73
2023-03-17T08:31:23.578Z,101833.34
2023-03-17T08:33:54.743Z,101827.88
2023-03-17T08:36:24.245Z,101842.98
2023-03-17T08:38:53.393Z,101832.89
2023-03-17T08:41:25.076Z,101819.80
2023-03-17T08:43:54.522Z,101826.39
2023-03-17T08:46:33.335Z,101825.73
2023-03-17T08:49:03.454Z,101822.67
2023-03-17T08:51:36.100Z,101822.17
2023-03-17T08:54:06.089Z,101821.02
2023-03-17T08:56:35.337Z,101815.41
2023-03-17T08:59:06.965Z,101814.17
2023-03-17T09:01:37.748Z,101809.39
2023-03-17T09:04:07.545Z,101824.65
2023-03-17T09:06:36.227Z,101821.46
2023-03-17T09:09:25.686Z,101820.65
2023-03-17T09:11:54.518Z,101800.96
2023-03-17T09:14:25.028Z,101797.07
2023-03-17T09:16:53.841Z,101794.23
2023-03-17T09:19:24.170Z,101796.55
2023-03-17T09:21:52.914Z,101804.73
2023-03-17T09:24:39.894Z,101789.67
2023-03-17T09:27:08.791Z,101794.48
2023-03-17T09:29:37.463Z,101796.45
2023-03-17T09:32:06.404Z,101790.55
2023-03-17T09:34:36.280Z,101808.69
2023-03-17T09:37:05.319Z,101805.48
2023-03-17T09:39:34.377Z,101799.64
2023-03-17T09:43:01.928Z,101791.11
2023-03-17T09:45:36.799Z,101805.87
2023-03-17T09:51:26.737Z,101794.67
2023-03-17T09:54:34.865Z,101798.26
2023-03-17T09:57:27.390Z,101793.10
2023-03-17T10:00:08.112Z,101783.13
2023-03-17T10:02:47.516Z,101781.88
2023-03-17T10:05:34.988Z,101797.34
2023-03-17T10:08:33.454Z,101787.39
2023-03-17T10:11:42.439Z,101780.45
2023-03-17T10:14:40.642Z,101780.26
2023-03-17T10:17:18.608Z,101782.36
2023-03-17T10:20:28.415Z,101761.56
2023-03-17T10:23:07.554Z,101787.16
2023-03-17T10:25:37.725Z,101772.77
2023-03-17T10:28:30.822Z,101763.70
2023-03-17T10:31:21.525Z,101759.78
2023-03-17T10:33:54.848Z,101761.70
2023-03-17T10:36:40.512Z,101751.72
2023-03-17T10:39:15.154Z,101747.21
2023-03-17T10:41:56.311Z,101728.69
2023-03-17T10:44:59.230Z,101761.79
2023-03-17T10:47:40.023Z,101754.19
2023-03-17T10:50:32.982Z,101749.08
2023-03-17T10:53:28.394Z,101731.82
2023-03-17T10:56:09.895Z,101727.16
2023-03-17T10:58:49.131Z,101736.17
2023-03-17T11:01:34.753Z,101724.05
2023-03-17T11:04:04.131Z,101715.52
2023-03-17T11:06:44.433Z,101714.74
2023-03-17T11:09:21.903Z,101713.07
2023-03-17T11:12:23.948Z,101720.23
2023-03-17T11:15:04.180Z,101714.27
2023-03-17T11:17:52.677Z,101715.66
2023-03-17T11:21:02.075Z,101697.43
2023-03-17T11:24:21.264Z,101703.23
2023-03-17T11:27:30.723Z,101704.02
2023-03-17T11:30:43.630Z,101699.39
2023-03-17T11:33:30.084Z,101705.56
2023-03-17T11:36:18.833Z,101692.33
2023-03-17T11:39:15.785Z,101686.40
2023-03-17T11:42:13.698Z,101680.34
2023-03-17T11:45:17.338Z,101683.88
2023-03-17T11:48:01.188Z,101684.58
2023-03-17T11:51:04.828Z,101699.23
2023-03-17T11:53:45.741Z,101689.83
2023-03-17T11:56:29.159Z,101691.05
2023-03-17T11:59:07.407Z,101680.48
2023-03-17T12:01:49.259Z,101688.98
2023-03-17T12:04:38.204Z,101685.65
2023-03-17T12:07:20.740Z,101683.73
2023-03-17T12:10:22.470Z,101676.04
2023-03-17T12:13:03.158Z,101695.84
2023-03-17T12:15:40.716Z,101708.32
2023-03-17T12:18:43.365Z,101696.25
2023-03-17T12:21:23.391Z,101691.95
2023-03-17T12:24:13.609Z,101695.11
2023-03-17T12:27:00.788Z,101689.36
2023-03-17T12:30:05.811Z,101676.95
2023-03-17T12:32:59.182Z,101677.60
2023-03-17T12:35:36.233Z,101686.52
2023-03-17T12:38:18.611Z,101681.16
2023-03-17T12:41:35.743Z,101686.92
2023-03-17T12:44:34.718Z,101673.17
2023-03-17T12:47:37.257Z,101672.76
2023-03-17T12:50:36.999Z,101683.24
2023-03-17T12:53:36.520Z,101681.37
2023-03-17T12:56:30.007Z,101671.09
2023-03-17T12:59:11.656Z,101672.34
2023-03-17T13:01:46.140Z,101661.61
2023-03-17T13:04:22.036Z,101666.37
2023-03-17T13:07:20.135Z,101661.35
2023-03-17T13:09:55.015Z,101678.38
2023-03-17T13:12:44.915Z,101688.48
2023-03-17T13:15:28.586Z,101683.20
2023-03-17T13:18:20.835Z,101666.39
2023-03-17T13:21:00.517Z,101663.27
2023-03-17T13:23:40.382Z,101670.30
2023-03-17T13:26:19.478Z,101659.70
2023-03-17T13:28:51.926Z,101665.76
2023-03-17T13:31:36.868Z,101669.64
2023-03-17T13:34:19.771Z,101662.45
2023-03-17T13:37:06.966Z,101671.60
2023-03-17T13:40:10.649Z,101660.65
2023-03-17T13:43:20.259Z,101661.28
2023-03-17T13:45:49.921Z,101667.98
2023-03-17T13:48:30.874Z,101667.25
2023-03-17T13:51:13.176Z,101668.44
2023-03-17T13:53:54.444Z,101666.80
2023-03-17T13:56:45.766Z,101671.27
2023-03-17T13:59:20.244Z,101676.16
2023-03-17T14:01:58.838Z,101668.79
2023-03-17T14:04:35.895Z,101677.70
2023-03-17T14:07:14.078Z,101671.36
2023-03-17T14:09:44.422Z,101676.95
2023-03-17T14:12:20.563Z,101674.45
2023-03-17T14:15:20.412Z,101680.78
2023-03-17T14:18:19.051Z,101683.17
2023-03-17T14:21:00.740Z,101684.42
2023-03-17T14:23:30.073Z,101681.63
2023-03-17T14:26:00.279Z,101680.89
2023-03-17T14:28:34.976Z,101686.91
2023-03-17T14:31:07.526Z,101682.92
2023-03-17T14:33:41.760Z,101677.86
2023-03-17T14:36:14.614Z,101684.94
2023-03-17T14:38:51.017Z,101677.45
2023-03-17T14:41:22.790Z,101680.23
2023-03-17T14:43:58.038Z,101683.79
2023-03-17T14:46:32.367Z,101675.09
2023-03-17T14:49:15.912Z,101676.39
2023-03-17T14:51:45.624Z,101684.29
2023-03-17T14:54:22.957Z,101683.06
2023-03-17T14:57:02.583Z,101689.31
2023-03-17T14:59:35.391Z,101688.25
2023-03-17T15:02:36.095Z,101692.73
2023-03-17T15:05:42.485Z,101691.81
2023-03-17T15:08:41.556Z,101697.17
2023-03-17T15:11:22.680Z,101699.37
2023-03-17T15:14:03.948Z,101688.52
2023-03-17T15:16:36.841Z,101686.59
2023-03-17T15:19:21.645Z,101694.48
2023-03-17T15:21:50.975Z,101690.95
2023-03-17T15:24:26.982Z,101688.98
2023-03-17T15:27:05.710Z,101698.06
2023-03-17T15:29:34.664Z,101689.52
2023-03-17T15:32:13.344Z,101690.42
2023-03-17T15:34:42.361Z,101691.30
2023-03-17T15:37:19.706Z,101697.73
2023-03-17T15:39:49.972Z,101694.17
2023-03-17T15:42:25.541Z,101694.74
2023-03-17T15:44:55.333Z,101696.54
2023-03-17T15:47:28.589Z,101704.73
2023-03-17T15:50:26.612Z,101702.27
2023-03-17T15:52:56.647Z,101705.65
2023-03-17T15:55:31.432Z,101712.61
2023-03-17T15:58:00.664Z,101708.72
2023-03-17T16:00:30.390Z,101707.83
2023-03-17T16:03:37.892Z,101709.45
2023-03-17T16:06:19.723Z,101714.42
2023-03-17T16:08:50.000Z,101717.10
2023-03-17T16:11:28.385Z,101718.70
2023-03-17T16:14:00.550Z,101717.98
2023-03-17T16:16:41.587Z,101720.48
2023-03-17T16:19:20.287Z,101724.91
2023-03-17T16:21:49.619Z,101722.26
2023-03-17T16:24:23.915Z,101729.37
2023-03-17T16:26:53.936Z,101729.00
2023-03-17T16:29:22.684Z,101729.90
2023-03-17T16:31:51.565Z,101737.92
2023-03-17T16:34:24.074Z,101734.01
2023-03-17T16:36:54.360Z,101735.77
2023-03-17T16:39:24.210Z,101749.48
2023-03-17T16:41:53.703Z,101752.50
2023-03-17T16:44:23.979Z,101756.61
2023-03-17T16:46:52.812Z,101756.96
2023-03-17T16:49:23.266Z,101761.42
2023-03-17T16:51:51.926Z,101762.86
2023-03-17T16:54:20.575Z,101767.13
2023-03-17T16:56:49.490Z,101763.04
2023-03-17T16:59:21.858Z,101766.08
2023-03-17T17:01:50.599Z,101770.52
2023-03-17T17:04:19.256Z,101769.10
2023-03-17T17:06:47.877Z,101771.76
2023-03-17T17:09:16.931Z,101775.13
2023-03-17T17:11:45.834Z,101774.41
2023-03-17T17:14:14.527Z,101778.50
2023-03-17T17:16:43.261Z,101776.90
2023-03-17T17:19:17.773Z,101780.98
2023-03-17T17:21:46.440Z,101782.77
2023-03-17T17:24:16.332Z,101781.70
2023-03-17T17:26:44.925Z,101781.52
2023-03-17T17:29:13.665Z,101783.65
2023-03-17T17:31:42.475Z,101790.94
2023-03-17T17:34:11.104Z,101791.29
2023-03-17T17:36:39.896Z,101795.38
2023-03-17T17:39:11.405Z,101793.06
2023-03-17T17:41:40.131Z,101792.17
2023-03-17T17:44:09.017Z,101796.42
2023-03-17T17:46:37.769Z,101799.78
2023-03-17T17:49:06.453Z,101797.80
2023-03-17T17:51:35.342Z,101804.73
2023-03-17T17:54:04.584Z,101804.54
2023-03-17T17:56:37.150Z,101805.23
2023-03-17T17:59:06.797Z,101802.91
2023-03-17T18:01:36.341Z,101801.66
2023-03-17T18:04:07.224Z,101803.95
2023-03-17T18:06:36.250Z,101806.23
2023-03-17T18:09:07.020Z,101803.17
2023-03-17T18:11:38.905Z,101805.64
2023-03-17T18:14:09.751Z,101808.11
2023-03-17T18:16:39.080Z,101804.50
2023-03-17T18:19:14.037Z,101803.41
2023-03-17T18:21:44.732Z,101803.21
2023-03-17T18:24:15.039Z,101803.02
2023-03-17T18:26:43.845Z,101802.97
2023-03-17T18:29:12.721Z,101802.04
2023-03-17T18:31:50.509Z,101804.14
2023-03-17T18:34:35.761Z,101803.59
2023-03-17T18:40:19.348Z,101807.27
2023-03-17T18:42:48.248Z,101808.11
2023-03-17T18:45:17.343Z,101805.94
2023-03-17T18:47:53.042Z,101810.85
2023-03-17T18:50:22.984Z,101815.92
2023-03-17T18:52:55.071Z,101811.80
2023-03-17T18:55:24.289Z,101813.55
2023-03-17T18:57:55.011Z,101814.58
2023-03-17T19:00:25.503Z,101814.52
2023-03-17T19:02:54.499Z,101814.14
2023-03-17T19:05:23.304Z,101809.48
2023-03-17T19:07:52.247Z,101812.66
2023-03-17T19:10:21.329Z,101814.54
2023-03-17T19:12:51.320Z,101817.13
2023-03-17T19:15:20.894Z,101814.78
2023-03-17T19:17:50.472Z,101814.94
2023-03-17T19:20:20.743Z,101814.55
2023-03-17T19:22:53.311Z,101813.80
2023-03-17T19:25:22.173Z,101814.29
2023-03-17T19:27:51.036Z,101819.74
2023-03-17T19:30:19.952Z,101816.87
2023-03-17T19:32:48.720Z,101818.02
2023-03-17T19:35:17.646Z,101812.98
2023-03-17T19:37:46.453Z,101809.56
2023-03-17T19:40:17.023Z,101808.61
2023-03-17T19:42:45.951Z,101808.05
2023-03-17T19:45:14.607Z,101806.96
2023-03-17T19:47:43.434Z,101808.48
2023-03-17T19:50:12.262Z,101805.98
2023-03-17T19:52:42.145Z,101805.23
2023-03-17T19:55:11.002Z,101804.98
2023-03-17T19:57:39.729Z,101804.40
2023-03-17T20:00:09.909Z,101804.49
2023-03-17T20:02:38.968Z,101806.00
2023-03-17T20:09:27.389Z,101803.66
2023-03-17T20:11:56.779Z,101805.29
2023-03-17T20:14:26.073Z,101806.58
2023-03-17T20:16:55.074Z,101806.84
2023-03-17T20:19:34.415Z,101809.40
2023-03-17T20:22:11.657Z,101810.02
2023-03-17T20:24:40.789Z,101808.02
2023-03-17T20:27:11.471Z,101809.56
2023-03-17T20:29:40.216Z,101808.63
2023-03-17T20:32:11.611Z,101807.50
2023-03-17T20:34:42.146Z,101807.98
2023-03-17T20:37:14.315Z,101807.13
2023-03-17T20:39:44.448Z,101811.06
2023-03-17T20:42:15.076Z,101810.94
2023-03-17T20:44:44.795Z,101810.99
2023-03-17T20:47:14.328Z,101815.55
2023-03-17T20:49:43.887Z,101809.60
2023-03-17T20:52:14.821Z,101812.38
2023-03-17T20:54:43.847Z,101813.64
2023-03-17T20:57:16.516Z,101814.73
2023-03-17T20:59:45.386Z,101809.92
2023-03-17T21:02:17.573Z,101809.94
2023-03-17T21:04:49.004Z,101811.42
2023-03-17T21:07:20.768Z,101816.20
2023-03-17T21:09:49.432Z,101814.29
2023-03-17T21:12:20.674Z,101815.42
2023-03-17T21:14:50.868Z,101815.27
2023-03-17T21:17:19.646Z,101814.98
2023-03-17T21:19:48.489Z,101813.05
2023-03-17T21:22:17.880Z,101810.60
2023-03-17T21:24:46.913Z,101816.47
2023-03-17T21:27:15.984Z,101816.77
2023-03-17T21:29:45.183Z,101820.79
2023-03-17T21:32:14.508Z,101817.98
2023-03-17T21:34:44.293Z,101821.67
2023-03-17T21:37:16.510Z,101820.70
2023-03-17T21:39:46.654Z,101818.85
2023-03-17T21:42:15.331Z,101817.60
2023-03-17T21:44:46.213Z,101811.57
2023-03-17T21:47:15.916Z,101809.23
2023-03-17T21:49:44.750Z,101808.33
2023-03-17T21:53:58.098Z,101807.65
2023-03-17T21:56:27.793Z,101810.90
2023-03-17T21:58:57.738Z,101809.95
2023-03-17T22:01:27.695Z,101808.88
2023-03-17T22:03:57.111Z,101811.59
2023-03-17T22:06:27.688Z,101809.90
2023-03-17T22:08:56.423Z,101809.38
2023-03-17T22:11:25.459Z,101807.54
2023-03-17T22:13:55.306Z,101807.33
2023-03-17T22:16:25.869Z,101812.20
2023-03-17T22:18:54.689Z,101817.20
2023-03-17T22:21:25.416Z,101818.80
2023-03-17T22:23:55.282Z,101820.85
2023-03-17T22:26:24.324Z,101819.27
2023-03-17T22:28:53.305Z,101821.88
2023-03-17T22:31:25.841Z,101820.98
2023-03-17T22:33:56.809Z,101821.86
2023-03-17T22:36:27.262Z,101817.98
2023-03-17T22:38:56.663Z,101821.37
2023-03-17T22:41:28.974Z,101821.28
2023-03-17T22:44:00.227Z,101823.85
2023-03-17T22:46:31.197Z,101824.08
2023-03-17T22:49:00.461Z,101823.68
2023-03-17T22:51:32.953Z,101825.42
2023-03-17T22:54:01.547Z,101826.56
2023-03-17T22:56:32.873Z,101834.84
2023-03-17T22:59:02.118Z,101835.02
2023-03-17T23:01:31.994Z,101835.69
2023-03-17T23:04:01.262Z,101837.59
2023-03-17T23:06:30.017Z,101839.65
2023-03-17T23:08:58.798Z,101835.81
2023-03-17T23:11:28.219Z,101839.33
2023-03-17T23:13:57.098Z,101837.02
2023-03-17T23:16:26.062Z,101832.20
2023-03-17T23:18:55.008Z,101827.42
2023-03-17T23:21:33.018Z,101830.60
2023-03-17T23:24:02.322Z,101825.16
2023-03-17T23:26:32.571Z,101826.94
2023-03-17T23:29:01.358Z,101826.35
2023-03-17T23:31:30.490Z,101827.20
2023-03-17T23:33:59.588Z,101828.16
2023-03-17T23:36:32.881Z,101830.95
2023-03-17T23:39:05.253Z,101832.27
2023-03-17T23:41:37.423Z,101833.85
2023-03-17T23:44:06.760Z,101834.46
2023-03-17T23:46:35.365Z,101832.36
2023-03-17T23:49:05.059Z,101828.17
2023-03-17T23:51:34.812Z,101825.85
2023-03-17T23:54:05.278Z,101827.52
2023-03-17T23:56:35.814Z,101830.07
2023-03-17T23:59:04.430Z,101833.34
